sensor_id;sensor_type;location;lat;lon;timestamp;P1;durP1;ratioP1;P2;durP2;ratioP2
14768;SDS011;7476;49.404;11.152;2023-04-25T00:01:15;4.83;;;4.33;;
14768;SDS011;7476;49.404;11.152;2023-04-25T00:03:43;4.20;;;3.80;;
14768;SDS011;7476;49.404;11.152;2023-04-25T00:06:10;4.63;;;4.00;;
14768;SDS011;7476;49.404;11.152;2023-04-25T00:08:38;5.33;;;4.17;;
14768;SDS011;7476;49.404;11.152;2023-04-25T00:11:04;6.53;;;4.37;;
14768;SDS011;7476;49.404;11.152;2023-04-25T00:13:31;4.63;;;4.13;;
14768;SDS011;7476;49.404;11.152;2023-04-25T00:15:58;4.30;;;3.90;;
14768;SDS011;7476;49.404;11.152;2023-04-25T00:18:25;5.17;;;4.03;;
14768;SDS011;7476;49.404;11.152;2023-04-25T00:20:55;5.27;;;4.17;;
14768;SDS011;7476;49.404;11.152;2023-04-25T00:23:22;6.97;;;4.30;;
14768;SDS011;7476;49.404;11.152;2023-04-25T00:25:48;7.13;;;4.03;;
14768;SDS011;7476;49.404;11.152;2023-04-25T00:28:16;4.43;;;4.03;;
14768;SDS011;7476;49.404;11.152;2023-04-25T00:30:43;5.33;;;3.90;;
14768;SDS011;7476;49.404;11.152;2023-04-25T00:33:09;5.13;;;4.00;;
14768;SDS011;7476;49.404;11.152;2023-04-25T00:35:36;5.30;;;3.80;;
14768;SDS011;7476;49.404;11.152;2023-04-25T00:38:05;4.87;;;3.63;;
14768;SDS011;7476;49.404;11.152;2023-04-25T00:40:32;4.63;;;4.10;;
14768;SDS011;7476;49.404;11.152;2023-04-25T00:42:59;4.33;;;3.90;;
14768;SDS011;7476;49.404;11.152;2023-04-25T00:45:27;6.13;;;4.10;;
14768;SDS011;7476;49.404;11.152;2023-04-25T00:47:55;5.13;;;3.97;;
14768;SDS011;7476;49.404;11.152;2023-04-25T00:50:22;4.83;;;4.07;;
14768;SDS011;7476;49.404;11.152;2023-04-25T00:52:49;5.03;;;4.53;;
14768;SDS011;7476;49.404;11.152;2023-04-25T00:55:18;5.60;;;4.27;;
14768;SDS011;7476;49.404;11.152;2023-04-25T00:57:45;4.47;;;4.07;;
14768;SDS011;7476;49.404;11.152;2023-04-25T01:00:13;4.37;;;3.87;;
14768;SDS011;7476;49.404;11.152;2023-04-25T01:02:40;5.03;;;4.20;;
14768;SDS011;7476;49.404;11.152;2023-04-25T01:05:08;6.10;;;4.87;;
14768;SDS011;7476;49.404;11.152;2023-04-25T01:07:35;5.57;;;4.20;;
14768;SDS011;7476;49.404;11.152;2023-04-25T01:10:01;4.97;;;4.40;;
14768;SDS011;7476;49.404;11.152;2023-04-25T01:12:30;6.23;;;4.23;;
14768;SDS011;7476;49.404;11.152;2023-04-25T01:14:57;5.50;;;3.90;;
14768;SDS011;7476;49.404;11.152;2023-04-25T01:17:23;4.07;;;3.67;;
14768;SDS011;7476;49.404;11.152;2023-04-25T01:19:50;4.77;;;4.37;;
14768;SDS011;7476;49.404;11.152;2023-04-25T01:22:18;4.07;;;3.67;;
14768;SDS011;7476;49.404;11.152;2023-04-25T01:24:45;5.40;;;4.70;;
14768;SDS011;7476;49.404;11.152;2023-04-25T01:27:12;4.87;;;4.37;;
14768;SDS011;7476;49.404;11.152;2023-04-25T01:29:40;4.57;;;3.93;;
14768;SDS011;7476;49.404;11.152;2023-04-25T01:32:07;4.57;;;4.07;;
14768;SDS011;7476;49.404;11.152;2023-04-25T01:34:34;4.73;;;4.17;;
14768;SDS011;7476;49.404;11.152;2023-04-25T01:37:01;5.40;;;4.43;;
14768;SDS011;7476;49.404;11.152;2023-04-25T01:39:29;4.90;;;4.20;;
14768;SDS011;7476;49.404;11.152;2023-04-25T01:41:55;5.23;;;4.63;;
14768;SDS011;7476;49.404;11.152;2023-04-25T01:44:23;5.20;;;4.70;;
14768;SDS011;7476;49.404;11.152;2023-04-25T01:46:50;5.33;;;4.53;;
14768;SDS011;7476;49.404;11.152;2023-04-25T01:49:17;5.10;;;4.30;;
14768;SDS011;7476;49.404;11.152;2023-04-25T01:51:44;5.43;;;4.60;;
14768;SDS011;7476;49.404;11.152;2023-04-25T01:54:10;5.77;;;4.40;;
14768;SDS011;7476;49.404;11.152;2023-04-25T01:56:40;4.83;;;4.00;;
14768;SDS011;7476;49.404;11.152;2023-04-25T01:59:06;4.77;;;4.20;;
14768;SDS011;7476;49.404;11.152;2023-04-25T02:01:33;5.20;;;4.10;;
14768;SDS011;7476;49.404;11.152;2023-04-25T02:04:00;6.40;;;4.50;;
14768;SDS011;7476;49.404;11.152;2023-04-25T02:06:27;4.47;;;4.03;;
14768;SDS011;7476;49.404;11.152;2023-04-25T02:08:53;4.60;;;4.10;;
14768;SDS011;7476;49.404;11.152;2023-04-25T02:11:20;6.53;;;4.70;;
14768;SDS011;7476;49.404;11.152;2023-04-25T02:13:48;5.60;;;5.00;;
14768;SDS011;7476;49.404;11.152;2023-04-25T02:16:14;8.00;;;5.43;;
14768;SDS011;7476;49.404;11.152;2023-04-25T02:18:41;5.80;;;5.10;;
14768;SDS011;7476;49.404;11.152;2023-04-25T02:21:09;6.50;;;5.57;;
14768;SDS011;7476;49.404;11.152;2023-04-25T02:23:37;6.93;;;5.40;;
14768;SDS011;7476;49.404;11.152;2023-04-25T02:26:03;5.90;;;5.30;;
14768;SDS011;7476;49.404;11.152;2023-04-25T02:28:31;7.43;;;5.50;;
14768;SDS011;7476;49.404;11.152;2023-04-25T02:30:59;6.60;;;5.70;;
14768;SDS011;7476;49.404;11.152;2023-04-25T02:33:27;7.00;;;5.70;;
14768;SDS011;7476;49.404;11.152;2023-04-25T02:35:54;6.93;;;5.90;;
14768;SDS011;7476;49.404;11.152;2023-04-25T02:38:20;7.30;;;4.90;;
14768;SDS011;7476;49.404;11.152;2023-04-25T02:40:47;7.03;;;6.10;;
14768;SDS011;7476;49.404;11.152;2023-04-25T02:43:13;6.37;;;5.27;;
14768;SDS011;7476;49.404;11.152;2023-04-25T02:45:41;6.93;;;5.93;;
14768;SDS011;7476;49.404;11.152;2023-04-25T02:48:09;6.73;;;5.70;;
14768;SDS011;7476;49.404;11.152;2023-04-25T02:50:35;6.80;;;5.60;;
14768;SDS011;7476;49.404;11.152;2023-04-25T02:53:02;6.80;;;5.60;;
14768;SDS011;7476;49.404;11.152;2023-04-25T02:55:28;9.77;;;6.40;;
14768;SDS011;7476;49.404;11.152;2023-04-25T02:57:55;6.57;;;5.60;;
14768;SDS011;7476;49.404;11.152;2023-04-25T03:00:22;6.20;;;5.60;;
14768;SDS011;7476;49.404;11.152;2023-04-25T03:02:48;6.40;;;5.50;;
14768;SDS011;7476;49.404;11.152;2023-04-25T03:05:17;7.60;;;5.93;;
14768;SDS011;7476;49.404;11.152;2023-04-25T03:07:44;7.37;;;6.07;;
14768;SDS011;7476;49.404;11.152;2023-04-25T03:10:11;7.53;;;5.60;;
14768;SDS011;7476;49.404;11.152;2023-04-25T03:12:38;7.77;;;5.83;;
14768;SDS011;7476;49.404;11.152;2023-04-25T03:15:05;8.60;;;6.10;;
14768;SDS011;7476;49.404;11.152;2023-04-25T03:17:32;7.67;;;5.80;;
14768;SDS011;7476;49.404;11.152;2023-04-25T03:19:59;7.53;;;5.70;;
14768;SDS011;7476;49.404;11.152;2023-04-25T03:22:27;8.50;;;6.13;;
14768;SDS011;7476;49.404;11.152;2023-04-25T03:24:53;11.43;;;6.20;;
14768;SDS011;7476;49.404;11.152;2023-04-25T03:27:20;7.20;;;5.97;;
14768;SDS011;7476;49.404;11.152;2023-04-25T03:29:47;7.63;;;5.40;;
14768;SDS011;7476;49.404;11.152;2023-04-25T03:32:13;6.53;;;5.83;;
14768;SDS011;7476;49.404;11.152;2023-04-25T03:34:40;8.10;;;6.63;;
14768;SDS011;7476;49.404;11.152;2023-04-25T03:37:07;10.63;;;6.97;;
14768;SDS011;7476;49.404;11.152;2023-04-25T03:39:35;8.27;;;6.13;;
14768;SDS011;7476;49.404;11.152;2023-04-25T03:42:02;8.30;;;6.10;;
14768;SDS011;7476;49.404;11.152;2023-04-25T03:44:29;7.20;;;6.10;;
14768;SDS011;7476;49.404;11.152;2023-04-25T03:46:56;8.47;;;6.77;;
14768;SDS011;7476;49.404;11.152;2023-04-25T03:49:22;7.77;;;6.03;;
14768;SDS011;7476;49.404;11.152;2023-04-25T03:51:50;7.10;;;6.40;;
14768;SDS011;7476;49.404;11.152;2023-04-25T03:54:17;7.77;;;5.87;;
14768;SDS011;7476;49.404;11.152;2023-04-25T03:56:45;8.70;;;6.50;;
14768;SDS011;7476;49.404;11.152;2023-04-25T03:59:13;7.70;;;6.10;;
14768;SDS011;7476;49.404;11.152;2023-04-25T04:01:40;8.03;;;5.87;;
14768;SDS011;7476;49.404;11.152;2023-04-25T04:04:06;11.33;;;7.60;;
14768;SDS011;7476;49.404;11.152;2023-04-25T04:06:33;8.50;;;5.97;;
14768;SDS011;7476;49.404;11.152;2023-04-25T04:09:01;7.77;;;6.10;;
14768;SDS011;7476;49.404;11.152;2023-04-25T04:11:28;8.67;;;6.23;;
14768;SDS011;7476;49.404;11.152;2023-04-25T04:13:57;8.33;;;6.23;;
14768;SDS011;7476;49.404;11.152;2023-04-25T04:16:24;6.03;;;5.43;;
14768;SDS011;7476;49.404;11.152;2023-04-25T04:18:51;6.47;;;5.10;;
14768;SDS011;7476;49.404;11.152;2023-04-25T04:21:17;6.53;;;5.43;;
14768;SDS011;7476;49.404;11.152;2023-04-25T04:23:44;6.53;;;5.80;;
14768;SDS011;7476;49.404;11.152;2023-04-25T04:26:11;6.00;;;5.40;;
14768;SDS011;7476;49.404;11.152;2023-04-25T04:28:38;6.83;;;5.40;;
14768;SDS011;7476;49.404;11.152;2023-04-25T04:31:06;7.47;;;5.50;;
14768;SDS011;7476;49.404;11.152;2023-04-25T04:33:33;7.17;;;5.23;;
14768;SDS011;7476;49.404;11.152;2023-04-25T04:35:59;5.90;;;5.03;;
14768;SDS011;7476;49.404;11.152;2023-04-25T04:38:27;6.53;;;5.20;;
14768;SDS011;7476;49.404;11.152;2023-04-25T04:40:55;6.70;;;4.77;;
14768;SDS011;7476;49.404;11.152;2023-04-25T04:43:22;5.60;;;5.03;;
14768;SDS011;7476;49.404;11.152;2023-04-25T04:45:49;6.97;;;5.17;;
14768;SDS011;7476;49.404;11.152;2023-04-25T04:48:17;6.13;;;5.13;;
14768;SDS011;7476;49.404;11.152;2023-04-25T04:50:44;8.13;;;5.30;;
14768;SDS011;7476;49.404;11.152;2023-04-25T04:53:11;5.63;;;4.97;;
14768;SDS011;7476;49.404;11.152;2023-04-25T04:55:37;7.77;;;5.10;;
14768;SDS011;7476;49.404;11.152;2023-04-25T04:58:06;5.83;;;4.63;;
14768;SDS011;7476;49.404;11.152;2023-04-25T05:00:32;5.37;;;4.87;;
14768;SDS011;7476;49.404;11.152;2023-04-25T05:02:59;6.13;;;4.80;;
14768;SDS011;7476;49.404;11.152;2023-04-25T05:05:27;5.93;;;4.87;;
14768;SDS011;7476;49.404;11.152;2023-04-25T05:07:54;5.53;;;5.03;;
14768;SDS011;7476;49.404;11.152;2023-04-25T05:10:21;6.23;;;5.30;;
14768;SDS011;7476;49.404;11.152;2023-04-25T05:12:47;6.07;;;5.07;;
14768;SDS011;7476;49.404;11.152;2023-04-25T05:15:14;6.30;;;5.47;;
14768;SDS011;7476;49.404;11.152;2023-04-25T05:17:41;5.60;;;5.00;;
14768;SDS011;7476;49.404;11.152;2023-04-25T05:20:08;7.43;;;5.40;;
14768;SDS011;7476;49.404;11.152;2023-04-25T05:22:37;7.57;;;5.57;;
14768;SDS011;7476;49.404;11.152;2023-04-25T05:25:03;6.40;;;5.37;;
14768;SDS011;7476;49.404;11.152;2023-04-25T05:27:32;8.43;;;5.67;;
14768;SDS011;7476;49.404;11.152;2023-04-25T05:29:58;6.33;;;5.50;;
14768;SDS011;7476;49.404;11.152;2023-04-25T05:32:25;6.47;;;5.07;;
14768;SDS011;7476;49.404;11.152;2023-04-25T05:34:52;7.27;;;5.57;;
14768;SDS011;7476;49.404;11.152;2023-04-25T05:37:19;5.63;;;5.13;;
14768;SDS011;7476;49.404;11.152;2023-04-25T05:39:47;6.70;;;5.73;;
14768;SDS011;7476;49.404;11.152;2023-04-25T05:42:13;6.20;;;5.60;;
14768;SDS011;7476;49.404;11.152;2023-04-25T05:44:40;6.83;;;5.87;;
14768;SDS011;7476;49.404;11.152;2023-04-25T05:47:07;6.93;;;5.50;;
14768;SDS011;7476;49.404;11.152;2023-04-25T05:49:34;6.17;;;5.57;;
14768;SDS011;7476;49.404;11.152;2023-04-25T05:52:00;7.77;;;5.40;;
14768;SDS011;7476;49.404;11.152;2023-04-25T05:54:27;6.83;;;5.90;;
14768;SDS011;7476;49.404;11.152;2023-04-25T05:56:55;7.23;;;5.80;;
14768;SDS011;7476;49.404;11.152;2023-04-25T05:59:22;7.97;;;6.57;;
14768;SDS011;7476;49.404;11.152;2023-04-25T06:01:49;8.37;;;6.13;;
14768;SDS011;7476;49.404;11.152;2023-04-25T06:04:16;6.73;;;6.03;;
14768;SDS011;7476;49.404;11.152;2023-04-25T06:06:43;7.90;;;6.40;;
14768;SDS011;7476;49.404;11.152;2023-04-25T06:09:10;8.10;;;6.53;;
14768;SDS011;7476;49.404;11.152;2023-04-25T06:11:36;9.27;;;6.70;;
14768;SDS011;7476;49.404;11.152;2023-04-25T06:14:05;9.20;;;7.10;;
14768;SDS011;7476;49.404;11.152;2023-04-25T06:16:32;10.30;;;7.07;;
14768;SDS011;7476;49.404;11.152;2023-04-25T06:18:59;7.43;;;6.60;;
14768;SDS011;7476;49.404;11.152;2023-04-25T06:21:25;7.40;;;6.37;;
14768;SDS011;7476;49.404;11.152;2023-04-25T06:23:52;7.10;;;6.40;;
14768;SDS011;7476;49.404;11.152;2023-04-25T06:26:19;8.93;;;6.93;;
14768;SDS011;7476;49.404;11.152;2023-04-25T06:28:45;7.23;;;6.43;;
14768;SDS011;7476;49.404;11.152;2023-04-25T06:31:13;7.57;;;6.17;;
14768;SDS011;7476;49.404;11.152;2023-04-25T06:33:40;8.10;;;6.70;;
14768;SDS011;7476;49.404;11.152;2023-04-25T06:36:07;7.30;;;6.50;;
14768;SDS011;7476;49.404;11.152;2023-04-25T06:38:33;7.00;;;6.23;;
14768;SDS011;7476;49.404;11.152;2023-04-25T06:41:00;7.50;;;6.40;;
14768;SDS011;7476;49.404;11.152;2023-04-25T06:43:29;7.37;;;5.83;;
14768;SDS011;7476;49.404;11.152;2023-04-25T06:45:58;7.57;;;6.73;;
14768;SDS011;7476;49.404;11.152;2023-04-25T06:48:26;6.60;;;5.90;;
14768;SDS011;7476;49.404;11.152;2023-04-25T06:50:53;8.53;;;6.70;;
14768;SDS011;7476;49.404;11.152;2023-04-25T06:53:21;8.07;;;6.60;;
14768;SDS011;7476;49.404;11.152;2023-04-25T06:55:48;8.20;;;6.30;;
14768;SDS011;7476;49.404;11.152;2023-04-25T06:58:14;7.93;;;6.20;;
14768;SDS011;7476;49.404;11.152;2023-04-25T07:00:41;9.00;;;7.27;;
14768;SDS011;7476;49.404;11.152;2023-04-25T07:03:08;8.97;;;7.50;;
14768;SDS011;7476;49.404;11.152;2023-04-25T07:05:36;10.27;;;7.53;;
14768;SDS011;7476;49.404;11.152;2023-04-25T07:08:02;9.03;;;7.37;;
14768;SDS011;7476;49.404;11.152;2023-04-25T07:10:29;8.33;;;7.23;;
14768;SDS011;7476;49.404;11.152;2023-04-25T07:12:56;8.83;;;6.30;;
14768;SDS011;7476;49.404;11.152;2023-04-25T07:15:23;9.70;;;7.00;;
14768;SDS011;7476;49.404;11.152;2023-04-25T07:17:49;7.43;;;6.60;;
14768;SDS011;7476;49.404;11.152;2023-04-25T07:20:16;8.00;;;5.90;;
14768;SDS011;7476;49.404;11.152;2023-04-25T07:22:44;7.97;;;6.20;;
14768;SDS011;7476;49.404;11.152;2023-04-25T07:25:11;8.50;;;6.40;;
14768;SDS011;7476;49.404;11.152;2023-04-25T07:27:38;7.67;;;5.90;;
14768;SDS011;7476;49.404;11.152;2023-04-25T07:30:06;6.87;;;5.37;;
14768;SDS011;7476;49.404;11.152;2023-04-25T07:32:33;5.87;;;5.37;;
14768;SDS011;7476;49.404;11.152;2023-04-25T07:35:00;7.23;;;5.90;;
14768;SDS011;7476;49.404;11.152;2023-04-25T07:37:28;9.07;;;5.97;;
14768;SDS011;7476;49.404;11.152;2023-04-25T07:39:56;7.83;;;6.60;;
14768;SDS011;7476;49.404;11.152;2023-04-25T07:42:23;7.83;;;6.07;;
14768;SDS011;7476;49.404;11.152;2023-04-25T07:44:49;6.60;;;5.67;;
14768;SDS011;7476;49.404;11.152;2023-04-25T07:47:16;6.10;;;5.50;;
14768;SDS011;7476;49.404;11.152;2023-04-25T07:49:44;5.80;;;4.50;;
14768;SDS011;7476;49.404;11.152;2023-04-25T07:52:11;5.53;;;4.60;;
14768;SDS011;7476;49.404;11.152;2023-04-25T07:54:38;4.70;;;3.93;;
14768;SDS011;7476;49.404;11.152;2023-04-25T07:57:06;5.20;;;4.00;;
14768;SDS011;7476;49.404;11.152;2023-04-25T07:59:33;4.93;;;4.13;;
14768;SDS011;7476;49.404;11.152;2023-04-25T08:02:00;4.10;;;3.70;;
14768;SDS011;7476;49.404;11.152;2023-04-25T08:04:27;5.97;;;3.80;;
14768;SDS011;7476;49.404;11.152;2023-04-25T08:06:54;4.80;;;3.73;;
14768;SDS011;7476;49.404;11.152;2023-04-25T08:09:21;5.73;;;4.27;;
14768;SDS011;7476;49.404;11.152;2023-04-25T08:11:48;6.37;;;4.67;;
14768;SDS011;7476;49.404;11.152;2023-04-25T08:14:16;5.43;;;4.30;;
14768;SDS011;7476;49.404;11.152;2023-04-25T08:16:42;4.70;;;4.23;;
14768;SDS011;7476;49.404;11.152;2023-04-25T08:19:09;5.87;;;4.20;;
14768;SDS011;7476;49.404;11.152;2023-04-25T08:21:37;6.17;;;4.67;;
14768;SDS011;7476;49.404;11.152;2023-04-25T08:24:03;4.60;;;3.83;;
14768;SDS011;7476;49.404;11.152;2023-04-25T08:26:30;5.17;;;3.90;;
14768;SDS011;7476;49.404;11.152;2023-04-25T08:28:57;4.77;;;3.73;;
14768;SDS011;7476;49.404;11.152;2023-04-25T08:31:25;4.37;;;3.77;;
14768;SDS011;7476;49.404;11.152;2023-04-25T08:33:52;5.50;;;3.70;;
14768;SDS011;7476;49.404;11.152;2023-04-25T08:36:19;5.00;;;3.97;;
14768;SDS011;7476;49.404;11.152;2023-04-25T08:38:45;5.90;;;3.80;;
14768;SDS011;7476;49.404;11.152;2023-04-25T08:41:12;4.83;;;3.40;;
14768;SDS011;7476;49.404;11.152;2023-04-25T08:43:40;5.30;;;3.77;;
14768;SDS011;7476;49.404;11.152;2023-04-25T08:46:09;4.67;;;3.20;;
14768;SDS011;7476;49.404;11.152;2023-04-25T08:48:40;6.43;;;3.87;;
14768;SDS011;7476;49.404;11.152;2023-04-25T08:51:08;8.53;;;4.03;;
14768;SDS011;7476;49.404;11.152;2023-04-25T08:53:40;5.63;;;3.70;;
14768;SDS011;7476;49.404;11.152;2023-04-25T08:56:08;6.00;;;3.80;;
14768;SDS011;7476;49.404;11.152;2023-04-25T08:58:38;3.87;;;3.57;;
14768;SDS011;7476;49.404;11.152;2023-04-25T09:01:05;4.70;;;3.60;;
14768;SDS011;7476;49.404;11.152;2023-04-25T09:03:31;3.70;;;3.27;;
14768;SDS011;7476;49.404;11.152;2023-04-25T09:06:00;9.27;;;3.93;;
14768;SDS011;7476;49.404;11.152;2023-04-25T09:08:27;7.10;;;3.80;;
14768;SDS011;7476;49.404;11.152;2023-04-25T09:10:54;4.67;;;4.03;;
14768;SDS011;7476;49.404;11.152;2023-04-25T09:13:23;6.00;;;4.20;;
14768;SDS011;7476;49.404;11.152;2023-04-25T09:15:52;4.80;;;4.07;;
14768;SDS011;7476;49.404;11.152;2023-04-25T09:18:23;5.73;;;4.43;;
14768;SDS011;7476;49.404;11.152;2023-04-25T09:20:53;4.87;;;4.10;;
14768;SDS011;7476;49.404;11.152;2023-04-25T09:23:22;4.73;;;3.97;;
14768;SDS011;7476;49.404;11.152;2023-04-25T09:25:50;6.30;;;4.63;;
14768;SDS011;7476;49.404;11.152;2023-04-25T09:28:22;5.50;;;4.90;;
14768;SDS011;7476;49.404;11.152;2023-04-25T09:30:54;5.77;;;5.13;;
14768;SDS011;7476;49.404;11.152;2023-04-25T09:33:26;5.57;;;5.03;;
14768;SDS011;7476;49.404;11.152;2023-04-25T09:35:55;7.87;;;5.63;;
14768;SDS011;7476;49.404;11.152;2023-04-25T09:38:31;6.13;;;5.10;;
14768;SDS011;7476;49.404;11.152;2023-04-25T09:40:58;5.50;;;4.80;;
14768;SDS011;7476;49.404;11.152;2023-04-25T09:43:26;5.17;;;4.60;;
14768;SDS011;7476;49.404;11.152;2023-04-25T09:45:53;4.97;;;4.43;;
14768;SDS011;7476;49.404;11.152;2023-04-25T09:48:24;4.43;;;3.80;;
14768;SDS011;7476;49.404;11.152;2023-04-25T09:51:05;5.50;;;4.10;;
14768;SDS011;7476;49.404;11.152;2023-04-25T09:53:34;4.87;;;4.27;;
14768;SDS011;7476;49.404;11.152;2023-04-25T09:56:03;4.70;;;4.00;;
14768;SDS011;7476;49.404;11.152;2023-04-25T09:58:31;6.03;;;4.33;;
14768;SDS011;7476;49.404;11.152;2023-04-25T10:00:59;4.37;;;3.87;;
14768;SDS011;7476;49.404;11.152;2023-04-25T10:03:29;5.60;;;4.00;;
14768;SDS011;7476;49.404;11.152;2023-04-25T10:05:56;4.27;;;3.87;;
14768;SDS011;7476;49.404;11.152;2023-04-25T10:08:26;4.60;;;4.07;;
14768;SDS011;7476;49.404;11.152;2023-04-25T10:10:59;4.10;;;3.63;;
14768;SDS011;7476;49.404;11.152;2023-04-25T10:13:28;4.67;;;3.90;;
14768;SDS011;7476;49.404;11.152;2023-04-25T10:15:56;4.07;;;3.67;;
14768;SDS011;7476;49.404;11.152;2023-04-25T10:18:24;4.70;;;3.93;;
14768;SDS011;7476;49.404;11.152;2023-04-25T10:20:51;5.67;;;4.37;;
14768;SDS011;7476;49.404;11.152;2023-04-25T10:23:18;5.90;;;4.87;;
14768;SDS011;7476;49.404;11.152;2023-04-25T10:25:46;5.83;;;4.80;;
14768;SDS011;7476;49.404;11.152;2023-04-25T10:28:15;5.63;;;4.40;;
14768;SDS011;7476;49.404;11.152;2023-04-25T10:30:56;5.97;;;4.80;;
14768;SDS011;7476;49.404;11.152;2023-04-25T10:33:29;4.97;;;4.47;;
14768;SDS011;7476;49.404;11.152;2023-04-25T10:36:04;6.00;;;4.30;;
14768;SDS011;7476;49.404;11.152;2023-04-25T10:38:35;5.10;;;4.60;;
14768;SDS011;7476;49.404;11.152;2023-04-25T10:41:03;7.33;;;4.50;;
14768;SDS011;7476;49.404;11.152;2023-04-25T10:43:34;4.43;;;4.03;;
14768;SDS011;7476;49.404;11.152;2023-04-25T10:46:02;5.03;;;4.30;;
14768;SDS011;7476;49.404;11.152;2023-04-25T10:48:43;5.10;;;4.60;;
14768;SDS011;7476;49.404;11.152;2023-04-25T10:51:16;5.17;;;3.97;;
14768;SDS011;7476;49.404;11.152;2023-04-25T10:53:44;5.40;;;3.50;;
14768;SDS011;7476;49.404;11.152;2023-04-25T10:56:11;3.23;;;2.50;;
14768;SDS011;7476;49.404;11.152;2023-04-25T10:58:45;5.10;;;3.17;;
14768;SDS011;7476;49.404;11.152;2023-04-25T11:01:13;3.80;;;2.83;;
14768;SDS011;7476;49.404;11.152;2023-04-25T11:03:40;3.63;;;2.97;;
14768;SDS011;7476;49.404;11.152;2023-04-25T11:06:10;3.13;;;2.77;;
14768;SDS011;7476;49.404;11.152;2023-04-25T11:08:46;5.03;;;3.13;;
14768;SDS011;7476;49.404;11.152;2023-04-25T11:11:15;4.20;;;2.47;;
14768;SDS011;7476;49.404;11.152;2023-04-25T11:13:42;2.93;;;2.30;;
14768;SDS011;7476;49.404;11.152;2023-04-25T11:16:10;5.57;;;2.80;;
14768;SDS011;7476;49.404;11.152;2023-04-25T11:18:36;4.27;;;2.40;;
14768;SDS011;7476;49.404;11.152;2023-04-25T11:21:03;3.03;;;2.33;;
14768;SDS011;7476;49.404;11.152;2023-04-25T11:23:31;2.93;;;2.03;;
14768;SDS011;7476;49.404;11.152;2023-04-25T11:25:58;3.50;;;2.37;;
14768;SDS011;7476;49.404;11.152;2023-04-25T11:28:26;3.40;;;2.20;;
14768;SDS011;7476;49.404;11.152;2023-04-25T11:30:52;4.23;;;2.27;;
14768;SDS011;7476;49.404;11.152;2023-04-25T11:33:24;2.37;;;2.17;;
14768;SDS011;7476;49.404;11.152;2023-04-25T11:35:52;3.57;;;1.93;;
14768;SDS011;7476;49.404;11.152;2023-04-25T11:38:20;3.10;;;2.27;;
14768;SDS011;7476;49.404;11.152;2023-04-25T11:40:49;4.80;;;2.17;;
14768;SDS011;7476;49.404;11.152;2023-04-25T11:43:17;2.67;;;2.17;;
14768;SDS011;7476;49.404;11.152;2023-04-25T11:45:45;3.43;;;2.10;;
14768;SDS011;7476;49.404;11.152;2023-04-25T11:48:12;3.20;;;2.00;;
14768;SDS011;7476;49.404;11.152;2023-04-25T11:50:40;2.60;;;1.90;;
14768;SDS011;7476;49.404;11.152;2023-04-25T11:53:07;3.47;;;1.80;;
14768;SDS011;7476;49.404;11.152;2023-04-25T11:55:35;2.23;;;1.60;;
14768;SDS011;7476;49.404;11.152;2023-04-25T11:58:03;2.27;;;1.73;;
14768;SDS011;7476;49.404;11.152;2023-04-25T12:00:30;2.50;;;1.90;;
14768;SDS011;7476;49.404;11.152;2023-04-25T12:02:58;2.77;;;2.17;;
14768;SDS011;7476;49.404;11.152;2023-04-25T12:05:25;3.00;;;2.10;;
14768;SDS011;7476;49.404;11.152;2023-04-25T12:07:55;2.63;;;2.17;;
14768;SDS011;7476;49.404;11.152;2023-04-25T12:10:23;1.80;;;1.70;;
14768;SDS011;7476;49.404;11.152;2023-04-25T12:12:51;1.67;;;1.57;;
14768;SDS011;7476;49.404;11.152;2023-04-25T12:15:22;1.60;;;1.50;;
14768;SDS011;7476;49.404;11.152;2023-04-25T12:17:51;2.13;;;1.60;;
14768;SDS011;7476;49.404;11.152;2023-04-25T12:20:20;2.20;;;1.60;;
14768;SDS011;7476;49.404;11.152;2023-04-25T12:22:48;1.80;;;1.70;;
14768;SDS011;7476;49.404;11.152;2023-04-25T12:28:11;2.00;;;1.50;;
14768;SDS011;7476;49.404;11.152;2023-04-25T12:30:54;2.00;;;1.73;;
14768;SDS011;7476;49.404;11.152;2023-04-25T12:33:22;1.93;;;1.77;;
14768;SDS011;7476;49.404;11.152;2023-04-25T12:35:49;2.87;;;1.80;;
14768;SDS011;7476;49.404;11.152;2023-04-25T12:38:23;2.40;;;1.90;;
14768;SDS011;7476;49.404;11.152;2023-04-25T12:40:51;2.90;;;1.60;;
14768;SDS011;7476;49.404;11.152;2023-04-25T12:43:19;1.83;;;1.73;;
14768;SDS011;7476;49.404;11.152;2023-04-25T12:45:47;2.03;;;1.70;;
14768;SDS011;7476;49.404;11.152;2023-04-25T12:48:14;1.80;;;1.70;;
14768;SDS011;7476;49.404;11.152;2023-04-25T12:50:41;1.83;;;1.50;;
14768;SDS011;7476;49.404;11.152;2023-04-25T12:53:08;2.00;;;1.80;;
14768;SDS011;7476;49.404;11.152;2023-04-25T12:55:35;2.57;;;1.87;;
14768;SDS011;7476;49.404;11.152;2023-04-25T12:58:03;3.10;;;1.90;;
14768;SDS011;7476;49.404;11.152;2023-04-25T13:00:30;2.47;;;2.00;;
14768;SDS011;7476;49.404;11.152;2023-04-25T13:02:56;2.90;;;1.70;;
14768;SDS011;7476;49.404;11.152;2023-04-25T13:05:23;2.90;;;2.13;;
14768;SDS011;7476;49.404;11.152;2023-04-25T13:07:50;2.90;;;2.13;;
14768;SDS011;7476;49.404;11.152;2023-04-25T13:10:17;2.70;;;1.90;;
14768;SDS011;7476;49.404;11.152;2023-04-25T13:12:44;2.10;;;1.90;;
14768;SDS011;7476;49.404;11.152;2023-04-25T13:15:12;2.40;;;2.00;;
14768;SDS011;7476;49.404;11.152;2023-04-25T13:17:40;2.13;;;1.93;;
14768;SDS011;7476;49.404;11.152;2023-04-25T13:20:08;2.27;;;2.07;;
14768;SDS011;7476;49.404;11.152;2023-04-25T13:22:35;2.13;;;1.93;;
14768;SDS011;7476;49.404;11.152;2023-04-25T13:25:03;3.50;;;1.80;;
14768;SDS011;7476;49.404;11.152;2023-04-25T13:27:30;3.03;;;2.00;;
14768;SDS011;7476;49.404;11.152;2023-04-25T13:29:58;2.20;;;2.00;;
14768;SDS011;7476;49.404;11.152;2023-04-25T13:32:27;2.27;;;2.07;;
14768;SDS011;7476;49.404;11.152;2023-04-25T13:34:53;3.10;;;2.17;;
14768;SDS011;7476;49.404;11.152;2023-04-25T13:37:21;3.73;;;2.37;;
14768;SDS011;7476;49.404;11.152;2023-04-25T13:39:49;2.50;;;2.17;;
14768;SDS011;7476;49.404;11.152;2023-04-25T13:42:16;1.97;;;1.70;;
14768;SDS011;7476;49.404;11.152;2023-04-25T13:44:42;3.63;;;2.17;;
14768;SDS011;7476;49.404;11.152;2023-04-25T13:47:09;2.57;;;2.37;;
14768;SDS011;7476;49.404;11.152;2023-04-25T13:49:38;3.17;;;2.30;;
14768;SDS011;7476;49.404;11.152;2023-04-25T13:52:04;4.13;;;2.17;;
14768;SDS011;7476;49.404;11.152;2023-04-25T13:54:31;2.50;;;1.93;;
14768;SDS011;7476;49.404;11.152;2023-04-25T13:56:58;2.27;;;1.97;;
14768;SDS011;7476;49.404;11.152;2023-04-25T13:59:25;2.87;;;2.40;;
14768;SDS011;7476;49.404;11.152;2023-04-25T14:01:51;2.40;;;2.20;;
14768;SDS011;7476;49.404;11.152;2023-04-25T14:04:18;4.43;;;2.37;;
14768;SDS011;7476;49.404;11.152;2023-04-25T14:06:46;2.60;;;2.40;;
14768;SDS011;7476;49.404;11.152;2023-04-25T14:09:13;3.77;;;2.30;;
14768;SDS011;7476;49.404;11.152;2023-04-25T14:11:40;4.53;;;2.40;;
14768;SDS011;7476;49.404;11.152;2023-04-25T14:14:07;2.87;;;2.30;;
14768;SDS011;7476;49.404;11.152;2023-04-25T14:16:33;2.47;;;2.27;;
14768;SDS011;7476;49.404;11.152;2023-04-25T14:19:00;3.53;;;2.17;;
14768;SDS011;7476;49.404;11.152;2023-04-25T14:21:28;3.37;;;2.80;;
14768;SDS011;7476;49.404;11.152;2023-04-25T14:23:58;3.20;;;2.10;;
14768;SDS011;7476;49.404;11.152;2023-04-25T14:26:24;3.23;;;2.33;;
14768;SDS011;7476;49.404;11.152;2023-04-25T14:28:51;2.47;;;2.27;;
14768;SDS011;7476;49.404;11.152;2023-04-25T14:31:18;2.83;;;2.50;;
14768;SDS011;7476;49.404;11.152;2023-04-25T14:33:45;3.80;;;2.37;;
14768;SDS011;7476;49.404;11.152;2023-04-25T14:36:11;4.37;;;2.53;;
14768;SDS011;7476;49.404;11.152;2023-04-25T14:38:39;4.30;;;2.67;;
14768;SDS011;7476;49.404;11.152;2023-04-25T14:41:07;3.73;;;2.90;;
14768;SDS011;7476;49.404;11.152;2023-04-25T14:43:33;4.27;;;3.40;;
14768;SDS011;7476;49.404;11.152;2023-04-25T14:46:01;2.90;;;2.50;;
14768;SDS011;7476;49.404;11.152;2023-04-25T14:48:28;4.10;;;2.50;;
14768;SDS011;7476;49.404;11.152;2023-04-25T14:50:55;5.63;;;3.20;;
14768;SDS011;7476;49.404;11.152;2023-04-25T14:53:22;3.83;;;2.87;;